Kezdőlap
METAR-TAF:

METAR-TAF

Repülőterek :

Cascavel, Paraná, Brazília

földrajzi szélesség: 25-00-08S, földrajzi hosszúság: 53-30-07W, magasság: 754 m

Jelenlegi meteorológiai megfigyelések

A jelentés 9 órával és 21 perccel ezelõtt készült, 23:00 UTC
Nyugat-délnyugati szél 8 kt
Hőmérséklet 9°C
Páratartalom 93%
Légköri nyomás 1023 hPa
Látótávolság: 2000 m
Szórványos felhőzet 200 lábon
Borult 300 lábon
enyhe szitálás, Párásság,

METAR: SBCA 272300Z 24008KT 2000 -DZ BR SCT002 OVC003 09/08 Q1023

Idő: 05:21 (08:21 UTC)


TAF: hiányzik

Meteorológiai megfigyelések és előrejelzések több, mint 4000 repülőtéren (METAR és TAF jelentéseket).

A térképen piros és sárga pontok jelzik az elérhető meteorológiai állomásokat.

Mozgassa az egeret a pont fölött, hogy megjelenjen az állomás neve.

Azután kattintson az időjárási megfigyelések és előrejelzések megtekintéséhez.

A térkép megváltoztatása: kattintson a fekete keresztel jelölt zöld gombra ráközelítéshez, a vonallal jelölt zöld gombra távolításhoz, vagy a zöld nyilakra a szomszédos térképek eléréséhez.


METAR-TAF: